This is the latest recevied weather packets stored in our database for station/object Riedlingn. If no packets are shown the sender has not sent any weather packets the latest 10 day(s).
| Time | Temp. | Humidity | Pressure | Rain* | Wind** | Luminosity | Snow |
|---|---|---|---|---|---|---|---|
| 1787655730 | 15.56° C | 90% | 1018.2 hPa | 2.29 mm | - | - | - |
| 1787653930 | 15° C | 91% | 1018.3 hPa | 2.29 mm | - | - | - |
| 1787652130 | 15° C | 91% | 1018.1 hPa | 2.29 mm | - | - | - |
| 1787650330 | 14.44° C | 92% | 1017.9 hPa | 2.29 mm | - | - | - |
| 1787648530 | 14.44° C | 91% | 1017.9 hPa | 1.78 mm | - | - | - |
| 1787646730 | 14.44° C | 89% | 1017.7 hPa | 0.76 mm | - | - | - |
| 1787644929 | 14.44° C | 87% | 1017.3 hPa | 0.25 mm | - | - | - |
| 1787643130 | 14.44° C | 84% | 1017 hPa | 0 mm | - | - | - |
| 1787641330 | 14.44° C | 82% | 1016.7 hPa | 0 mm | - | - | - |
| 1787639529 | 14.44° C | 81% | 1016.4 hPa | 0 mm | - | - | - |
| 1787637730 | 14.44° C | 80% | 1016.1 hPa | 0 mm | - | - | - |
| 1787635930 | 14.44° C | 79% | 1015.9 hPa | 0 mm | - | - | - |
| 1787634129 | 14.44° C | 80% | 1015.4 hPa | 0 mm | - | - | - |
| 1787632329 | 15° C | 75% | 1015 hPa | 0 mm | - | - | - |
| 1787630529 | 15.56° C | 71% | 1014.4 hPa | 0 mm | - | - | - |
| 1787628730 | 15.56° C | 70% | 1014.3 hPa | 0 mm | - | - | - |
| 1787626930 | 15.56° C | 70% | 1014.2 hPa | 0 mm | - | - | - |
| 1787625129 | 15.56° C | 69% | 1014.3 hPa | 0 mm | - | - | - |
| 1787623329 | 15.56° C | 67% | 1014.8 hPa | 0 mm | - | - | - |
| 1787621529 | 16.11° C | 65% | 1014.9 hPa | 0 mm | - | - | - |
| 1787619730 | 16.67° C | 62% | 1014.9 hPa | 0 mm | - | - | - |
| 1787617931 | 16.67° C | 61% | 1015.1 hPa | 0 mm | - | - | - |
| 1787616131 | 16.67° C | 61% | 1015.3 hPa | 0 mm | - | - | - |
| 1787614331 | 16.67° C | 60% | 1015.2 hPa | 0 mm | - | - | - |
| 1787612532 | 17.22° C | 59% | 1016.3 hPa | 0 mm | - | - | - |
* Rain since midnight (hover to see other rain measurements)
** Current wind speed in m/s (hover to see current wind gust speed)